sensor_id;sensor_type;location;lat;lon;timestamp;pressure;altitude;pressure_sealevel;temperature;humidity
15932;BME280;8065;49.520;11.284;2022-08-18T00:01:38;96913.00;;;23.06;73.74
15932;BME280;8065;49.520;11.284;2022-08-18T00:04:06;96910.78;;;23.01;74.00
15932;BME280;8065;49.520;11.284;2022-08-18T00:06:32;96906.06;;;23.05;74.26
15932;BME280;8065;49.520;11.284;2022-08-18T00:09:03;96911.88;;;23.04;74.16
15932;BME280;8065;49.520;11.284;2022-08-18T00:11:33;96918.59;;;22.96;74.64
15932;BME280;8065;49.520;11.284;2022-08-18T00:13:59;96911.47;;;23.05;74.07
15932;BME280;8065;49.520;11.284;2022-08-18T00:16:27;96911.06;;;23.07;74.16
15932;BME280;8065;49.520;11.284;2022-08-18T00:18:54;96921.00;;;23.13;73.53
15932;BME280;8065;49.520;11.284;2022-08-18T00:21:20;96924.97;;;23.09;73.14
15932;BME280;8065;49.520;11.284;2022-08-18T00:23:47;96951.00;;;23.03;73.40
15932;BME280;8065;49.520;11.284;2022-08-18T00:26:14;96971.63;;;22.70;73.49
15932;BME280;8065;49.520;11.284;2022-08-18T00:28:40;96970.81;;;22.73;71.92
15932;BME280;8065;49.520;11.284;2022-08-18T00:31:07;96960.25;;;22.82;71.91
15932;BME280;8065;49.520;11.284;2022-08-18T00:33:35;96982.16;;;22.91;71.55
15932;BME280;8065;49.520;11.284;2022-08-18T00:36:02;96989.94;;;22.89;71.36
15932;BME280;8065;49.520;11.284;2022-08-18T00:38:28;96991.53;;;22.86;71.13
15932;BME280;8065;49.520;11.284;2022-08-18T00:40:55;96980.88;;;22.99;70.42
15932;BME280;8065;49.520;11.284;2022-08-18T00:43:25;96984.91;;;23.14;70.03
15932;BME280;8065;49.520;11.284;2022-08-18T00:45:56;97001.88;;;23.18;69.61
15932;BME280;8065;49.520;11.284;2022-08-18T00:48:22;96996.69;;;23.28;69.15
15932;BME280;8065;49.520;11.284;2022-08-18T00:50:53;96996.50;;;23.38;68.90
15932;BME280;8065;49.520;11.284;2022-08-18T00:53:24;96995.13;;;23.50;68.45
15932;BME280;8065;49.520;11.284;2022-08-18T00:55:55;97010.53;;;23.57;68.09
15932;BME280;8065;49.520;11.284;2022-08-18T00:58:28;97015.06;;;23.63;67.85
15932;BME280;8065;49.520;11.284;2022-08-18T01:00:59;97011.88;;;23.68;67.90
15932;BME280;8065;49.520;11.284;2022-08-18T01:03:29;97017.25;;;23.72;68.04
15932;BME280;8065;49.520;11.284;2022-08-18T01:06:02;97027.31;;;23.71;67.81
15932;BME280;8065;49.520;11.284;2022-08-18T01:08:30;97031.91;;;23.74;67.75
15932;BME280;8065;49.520;11.284;2022-08-18T01:11:00;97045.06;;;23.76;67.28
15932;BME280;8065;49.520;11.284;2022-08-18T01:13:29;97047.38;;;23.77;67.26
15932;BME280;8065;49.520;11.284;2022-08-18T01:15:57;97051.97;;;23.80;67.19
15932;BME280;8065;49.520;11.284;2022-08-18T01:18:44;97057.75;;;23.82;67.18
15932;BME280;8065;49.520;11.284;2022-08-18T01:21:32;97060.41;;;23.86;66.92
15932;BME280;8065;49.520;11.284;2022-08-18T01:24:22;97061.94;;;23.87;66.67
15932;BME280;8065;49.520;11.284;2022-08-18T01:27:12;97058.09;;;23.84;68.84
15932;BME280;8065;49.520;11.284;2022-08-18T01:29:42;97058.09;;;23.84;69.85
15932;BME280;8065;49.520;11.284;2022-08-18T01:32:09;97071.31;;;23.82;71.09
15932;BME280;8065;49.520;11.284;2022-08-18T01:34:36;97058.53;;;23.83;71.15
15932;BME280;8065;49.520;11.284;2022-08-18T01:37:03;97056.16;;;23.85;71.28
15932;BME280;8065;49.520;11.284;2022-08-18T01:39:32;97057.53;;;23.73;73.46
15932;BME280;8065;49.520;11.284;2022-08-18T01:41:59;97056.81;;;23.69;74.33
15932;BME280;8065;49.520;11.284;2022-08-18T01:44:28;97072.34;;;23.69;75.08
15932;BME280;8065;49.520;11.284;2022-08-18T01:46:55;97079.53;;;23.56;77.47
15932;BME280;8065;49.520;11.284;2022-08-18T01:49:22;97074.25;;;23.45;77.57
15932;BME280;8065;49.520;11.284;2022-08-18T01:51:48;97067.34;;;23.40;78.27
15932;BME280;8065;49.520;11.284;2022-08-18T01:54:17;97058.59;;;23.33;79.30
15932;BME280;8065;49.520;11.284;2022-08-18T01:56:44;97059.06;;;23.28;80.17
15932;BME280;8065;49.520;11.284;2022-08-18T01:59:12;97052.91;;;23.24;81.43
15932;BME280;8065;49.520;11.284;2022-08-18T02:01:41;97062.34;;;23.15;81.56
15932;BME280;8065;49.520;11.284;2022-08-18T02:04:08;97065.47;;;23.14;81.67
15932;BME280;8065;49.520;11.284;2022-08-18T02:06:37;97072.22;;;23.02;82.89
15932;BME280;8065;49.520;11.284;2022-08-18T02:09:04;97073.13;;;22.92;84.55
15932;BME280;8065;49.520;11.284;2022-08-18T02:11:31;97076.75;;;22.82;84.52
15932;BME280;8065;49.520;11.284;2022-08-18T02:13:59;97077.69;;;22.68;85.98
15932;BME280;8065;49.520;11.284;2022-08-18T02:16:26;97076.28;;;22.56;86.85
15932;BME280;8065;49.520;11.284;2022-08-18T02:18:52;97061.53;;;22.61;86.24
15932;BME280;8065;49.520;11.284;2022-08-18T02:21:19;97056.41;;;22.67;86.54
15932;BME280;8065;49.520;11.284;2022-08-18T02:23:47;97053.00;;;22.63;88.50
15932;BME280;8065;49.520;11.284;2022-08-18T02:26:16;97036.13;;;22.51;89.86
15932;BME280;8065;49.520;11.284;2022-08-18T02:28:44;97030.91;;;22.37;90.65
15932;BME280;8065;49.520;11.284;2022-08-18T02:31:14;97028.38;;;22.23;92.48
15932;BME280;8065;49.520;11.284;2022-08-18T02:33:42;97029.66;;;22.11;90.81
15932;BME280;8065;49.520;11.284;2022-08-18T02:36:08;97028.44;;;22.16;90.80
15932;BME280;8065;49.520;11.284;2022-08-18T02:38:36;97026.03;;;22.25;90.13
15932;BME280;8065;49.520;11.284;2022-08-18T02:41:06;97024.75;;;22.33;89.38
15932;BME280;8065;49.520;11.284;2022-08-18T02:43:34;97020.16;;;22.30;90.60
15932;BME280;8065;49.520;11.284;2022-08-18T02:46:02;97026.38;;;22.27;90.69
15932;BME280;8065;49.520;11.284;2022-08-18T02:48:31;97033.81;;;22.19;91.05
15932;BME280;8065;49.520;11.284;2022-08-18T02:51:00;97029.25;;;22.13;93.03
15932;BME280;8065;49.520;11.284;2022-08-18T02:53:27;97031.19;;;22.12;93.07
15932;BME280;8065;49.520;11.284;2022-08-18T02:55:54;97032.78;;;22.10;94.76
15932;BME280;8065;49.520;11.284;2022-08-18T02:58:21;97031.25;;;22.09;94.28
15932;BME280;8065;49.520;11.284;2022-08-18T03:00:47;97028.44;;;22.16;94.22
15932;BME280;8065;49.520;11.284;2022-08-18T03:03:14;97018.75;;;22.18;94.94
15932;BME280;8065;49.520;11.284;2022-08-18T03:05:42;97004.44;;;22.18;94.04
15932;BME280;8065;49.520;11.284;2022-08-18T03:08:08;97010.41;;;22.06;94.82
15932;BME280;8065;49.520;11.284;2022-08-18T03:10:35;97011.97;;;22.00;95.39
15932;BME280;8065;49.520;11.284;2022-08-18T03:13:03;97010.56;;;21.88;95.98
15932;BME280;8065;49.520;11.284;2022-08-18T03:15:30;97008.78;;;21.74;96.64
15932;BME280;8065;49.520;11.284;2022-08-18T03:17:56;97017.31;;;21.69;97.03
15932;BME280;8065;49.520;11.284;2022-08-18T03:20:23;97021.25;;;21.65;97.31
15932;BME280;8065;49.520;11.284;2022-08-18T03:22:52;97017.06;;;21.60;96.95
15932;BME280;8065;49.520;11.284;2022-08-18T03:25:18;97000.25;;;21.76;96.73
15932;BME280;8065;49.520;11.284;2022-08-18T03:27:45;96998.31;;;21.76;97.29
15932;BME280;8065;49.520;11.284;2022-08-18T03:30:12;96992.28;;;21.65;97.80
15932;BME280;8065;49.520;11.284;2022-08-18T03:32:38;96994.31;;;21.54;98.79
15932;BME280;8065;49.520;11.284;2022-08-18T03:35:05;96996.97;;;21.61;97.96
15932;BME280;8065;49.520;11.284;2022-08-18T03:37:32;96996.22;;;21.57;97.99
15932;BME280;8065;49.520;11.284;2022-08-18T03:40:00;96999.25;;;21.63;97.65
15932;BME280;8065;49.520;11.284;2022-08-18T03:42:27;96993.72;;;21.73;97.42
15932;BME280;8065;49.520;11.284;2022-08-18T03:44:53;96998.19;;;21.53;97.29
15932;BME280;8065;49.520;11.284;2022-08-18T03:47:20;96992.97;;;21.69;97.28
15932;BME280;8065;49.520;11.284;2022-08-18T03:49:47;96981.47;;;21.65;98.06
15932;BME280;8065;49.520;11.284;2022-08-18T03:52:13;96990.03;;;21.60;98.26
15932;BME280;8065;49.520;11.284;2022-08-18T03:54:40;96990.09;;;21.53;99.16
15932;BME280;8065;49.520;11.284;2022-08-18T03:57:09;96977.81;;;21.45;100.00
15932;BME280;8065;49.520;11.284;2022-08-18T03:59:37;96973.97;;;21.42;100.00
15932;BME280;8065;49.520;11.284;2022-08-18T04:02:06;96977.88;;;21.38;100.00
15932;BME280;8065;49.520;11.284;2022-08-18T04:04:33;96964.06;;;21.29;100.00
15932;BME280;8065;49.520;11.284;2022-08-18T04:07:01;96957.91;;;21.24;100.00
15932;BME280;8065;49.520;11.284;2022-08-18T04:09:30;96963.31;;;21.24;100.00
15932;BME280;8065;49.520;11.284;2022-08-18T04:12:02;96972.56;;;21.27;100.00
15932;BME280;8065;49.520;11.284;2022-08-18T04:14:31;96977.50;;;21.36;99.74
15932;BME280;8065;49.520;11.284;2022-08-18T04:16:57;96979.38;;;21.42;99.55
15932;BME280;8065;49.520;11.284;2022-08-18T04:19:24;96988.91;;;21.54;98.63
15932;BME280;8065;49.520;11.284;2022-08-18T04:21:51;96985.34;;;21.64;98.12
15932;BME280;8065;49.520;11.284;2022-08-18T04:24:19;96992.28;;;21.65;98.58
15932;BME280;8065;49.520;11.284;2022-08-18T04:26:47;96993.97;;;21.52;98.94
15932;BME280;8065;49.520;11.284;2022-08-18T04:29:15;96995.69;;;21.32;100.00
15932;BME280;8065;49.520;11.284;2022-08-18T04:31:44;97005.03;;;21.23;99.98
15932;BME280;8065;49.520;11.284;2022-08-18T04:34:10;96991.81;;;21.33;99.92
15932;BME280;8065;49.520;11.284;2022-08-18T04:36:38;96999.50;;;21.38;100.00
15932;BME280;8065;49.520;11.284;2022-08-18T04:39:07;96999.88;;;21.40;100.00
15932;BME280;8065;49.520;11.284;2022-08-18T04:41:34;97004.91;;;21.38;100.00
15932;BME280;8065;49.520;11.284;2022-08-18T04:44:04;97006.75;;;21.48;100.00
15932;BME280;8065;49.520;11.284;2022-08-18T04:46:34;97008.22;;;21.56;100.00
15932;BME280;8065;49.520;11.284;2022-08-18T04:49:02;97011.72;;;21.53;100.00
15932;BME280;8065;49.520;11.284;2022-08-18T04:51:29;97016.34;;;21.52;100.00
15932;BME280;8065;49.520;11.284;2022-08-18T04:53:56;97025.31;;;21.46;100.00
15932;BME280;8065;49.520;11.284;2022-08-18T04:56:27;97040.31;;;21.50;100.00
15932;BME280;8065;49.520;11.284;2022-08-18T04:58:56;97027.13;;;21.56;99.03
15932;BME280;8065;49.520;11.284;2022-08-18T05:01:25;97017.44;;;21.62;98.67
15932;BME280;8065;49.520;11.284;2022-08-18T05:03:53;97021.56;;;21.70;98.11
15932;BME280;8065;49.520;11.284;2022-08-18T05:06:22;97010.75;;;21.70;98.78
15932;BME280;8065;49.520;11.284;2022-08-18T05:08:50;97014.56;;;21.76;99.45
15932;BME280;8065;49.520;11.284;2022-08-18T05:11:18;97019.88;;;21.83;98.74
15932;BME280;8065;49.520;11.284;2022-08-18T05:13:45;97027.94;;;21.90;97.96
15932;BME280;8065;49.520;11.284;2022-08-18T05:16:12;97028.72;;;21.87;97.65
15932;BME280;8065;49.520;11.284;2022-08-18T05:18:38;97020.97;;;21.89;97.10
15932;BME280;8065;49.520;11.284;2022-08-18T05:21:05;97022.22;;;21.81;97.32
15932;BME280;8065;49.520;11.284;2022-08-18T05:23:34;97020.25;;;21.85;97.32
15932;BME280;8065;49.520;11.284;2022-08-18T05:26:02;97021.34;;;21.91;96.79
15932;BME280;8065;49.520;11.284;2022-08-18T05:28:29;97014.31;;;21.98;96.04
15932;BME280;8065;49.520;11.284;2022-08-18T05:30:55;97008.09;;;22.01;96.06
15932;BME280;8065;49.520;11.284;2022-08-18T05:33:22;97004.97;;;22.06;96.22
15932;BME280;8065;49.520;11.284;2022-08-18T05:35:52;97007.69;;;22.06;96.30
15932;BME280;8065;49.520;11.284;2022-08-18T05:38:39;97016.34;;;21.90;96.90
15932;BME280;8065;49.520;11.284;2022-08-18T05:41:13;97016.31;;;21.93;96.09
15932;BME280;8065;49.520;11.284;2022-08-18T05:43:44;97022.22;;;21.81;95.85
15932;BME280;8065;49.520;11.284;2022-08-18T05:46:11;97019.81;;;21.90;95.38
15932;BME280;8065;49.520;11.284;2022-08-18T05:48:38;97020.53;;;21.95;95.28
15932;BME280;8065;49.520;11.284;2022-08-18T05:51:11;97028.22;;;22.00;94.69
15932;BME280;8065;49.520;11.284;2022-08-18T05:53:42;97034.75;;;22.06;94.83
15932;BME280;8065;49.520;11.284;2022-08-18T05:56:32;97028.91;;;22.11;94.28
15932;BME280;8065;49.520;11.284;2022-08-18T05:59:13;97021.88;;;22.17;94.45
15932;BME280;8065;49.520;11.284;2022-08-18T06:01:44;97032.69;;;22.17;94.11
15932;BME280;8065;49.520;11.284;2022-08-18T06:04:22;97041.91;;;22.23;93.71
15932;BME280;8065;49.520;11.284;2022-08-18T06:06:52;97054.59;;;22.30;93.53
15932;BME280;8065;49.520;11.284;2022-08-18T06:09:28;97048.72;;;22.35;93.38
15932;BME280;8065;49.520;11.284;2022-08-18T06:12:11;97056.44;;;22.36;93.24
15932;BME280;8065;49.520;11.284;2022-08-18T06:14:38;97053.69;;;22.40;93.11
15932;BME280;8065;49.520;11.284;2022-08-18T06:17:14;97041.31;;;22.39;93.53
15932;BME280;8065;49.520;11.284;2022-08-18T06:19:49;97040.91;;;22.40;93.20
15932;BME280;8065;49.520;11.284;2022-08-18T06:22:26;97054.09;;;22.38;93.32
15932;BME280;8065;49.520;11.284;2022-08-18T06:25:01;97058.72;;;22.41;93.57
15932;BME280;8065;49.520;11.284;2022-08-18T06:27:35;97060.97;;;22.46;93.54
15932;BME280;8065;49.520;11.284;2022-08-18T06:30:09;97060.50;;;22.51;93.30
15932;BME280;8065;49.520;11.284;2022-08-18T06:32:48;97060.81;;;22.57;93.68
15932;BME280;8065;49.520;11.284;2022-08-18T06:35:31;97069.97;;;22.67;93.80
15932;BME280;8065;49.520;11.284;2022-08-18T06:38:05;97078.34;;;22.76;93.57
15932;BME280;8065;49.520;11.284;2022-08-18T06:41:00;97077.94;;;22.81;93.37
15932;BME280;8065;49.520;11.284;2022-08-18T06:43:28;97065.91;;;22.82;92.64
15932;BME280;8065;49.520;11.284;2022-08-18T06:45:57;97065.81;;;22.89;92.67
15932;BME280;8065;49.520;11.284;2022-08-18T06:48:31;97072.31;;;22.95;91.70
15932;BME280;8065;49.520;11.284;2022-08-18T06:51:00;97069.59;;;22.95;90.88
15932;BME280;8065;49.520;11.284;2022-08-18T06:53:53;97069.50;;;23.02;90.54
15932;BME280;8065;49.520;11.284;2022-08-18T06:56:25;97054.66;;;23.10;90.29
15932;BME280;8065;49.520;11.284;2022-08-18T06:58:53;97060.81;;;23.14;90.40
15932;BME280;8065;49.520;11.284;2022-08-18T07:01:20;97063.81;;;23.20;89.73
15932;BME280;8065;49.520;11.284;2022-08-18T07:03:49;97070.66;;;23.28;89.30
15932;BME280;8065;49.520;11.284;2022-08-18T07:06:29;97085.25;;;23.38;89.81
15932;BME280;8065;49.520;11.284;2022-08-18T07:09:18;97078.44;;;23.49;88.30
15932;BME280;8065;49.520;11.284;2022-08-18T07:12:00;97073.75;;;23.53;86.69
15932;BME280;8065;49.520;11.284;2022-08-18T07:14:27;97067.91;;;23.55;86.84
15932;BME280;8065;49.520;11.284;2022-08-18T07:17:05;97055.53;;;23.54;86.27
15932;BME280;8065;49.520;11.284;2022-08-18T07:19:32;97059.41;;;23.53;85.98
15932;BME280;8065;49.520;11.284;2022-08-18T07:22:02;97053.13;;;23.60;85.80
15932;BME280;8065;49.520;11.284;2022-08-18T07:24:30;97049.94;;;23.65;85.81
15932;BME280;8065;49.520;11.284;2022-08-18T07:27:03;97045.84;;;23.76;85.10
15932;BME280;8065;49.520;11.284;2022-08-18T07:29:33;97040.19;;;23.67;84.23
15932;BME280;8065;49.520;11.284;2022-08-18T07:32:04;97048.22;;;23.74;83.91
15932;BME280;8065;49.520;11.284;2022-08-18T07:34:36;97056.56;;;23.83;83.08
15932;BME280;8065;49.520;11.284;2022-08-18T07:37:08;97054.22;;;23.85;83.03
15932;BME280;8065;49.520;11.284;2022-08-18T07:39:43;97056.44;;;23.91;82.38
15932;BME280;8065;49.520;11.284;2022-08-18T07:42:16;97057.16;;;23.95;82.15
15932;BME280;8065;49.520;11.284;2022-08-18T07:44:48;97061.63;;;24.05;82.33
15932;BME280;8065;49.520;11.284;2022-08-18T07:47:19;97068.31;;;24.20;82.99
15932;BME280;8065;49.520;11.284;2022-08-18T07:49:47;97078.13;;;24.34;82.80
15932;BME280;8065;49.520;11.284;2022-08-18T07:52:20;97073.19;;;24.48;81.80
15932;BME280;8065;49.520;11.284;2022-08-18T07:54:56;97088.28;;;24.49;80.13
15932;BME280;8065;49.520;11.284;2022-08-18T07:57:37;97093.09;;;24.62;79.92
15932;BME280;8065;49.520;11.284;2022-08-18T08:00:13;97079.72;;;24.71;80.13
15932;BME280;8065;49.520;11.284;2022-08-18T08:02:52;97078.72;;;24.81;79.64
15932;BME280;8065;49.520;11.284;2022-08-18T08:05:35;97072.00;;;24.86;79.51
15932;BME280;8065;49.520;11.284;2022-08-18T08:08:14;97079.31;;;24.89;79.11
15932;BME280;8065;49.520;11.284;2022-08-18T08:10:49;97066.00;;;24.94;79.09
15932;BME280;8065;49.520;11.284;2022-08-18T08:13:23;97070.66;;;24.94;78.67
15932;BME280;8065;49.520;11.284;2022-08-18T08:15:56;97060.28;;;25.08;78.01
15932;BME280;8065;49.520;11.284;2022-08-18T08:18:33;97076.22;;;25.23;78.27
15932;BME280;8065;49.520;11.284;2022-08-18T08:21:06;97076.75;;;25.34;77.68
15932;BME280;8065;49.520;11.284;2022-08-18T08:23:44;97085.00;;;25.46;77.28
15932;BME280;8065;49.520;11.284;2022-08-18T08:26:28;97083.13;;;25.60;77.57
15932;BME280;8065;49.520;11.284;2022-08-18T08:29:13;97076.44;;;25.64;75.79
15932;BME280;8065;49.520;11.284;2022-08-18T08:31:49;97055.22;;;25.72;75.97
15932;BME280;8065;49.520;11.284;2022-08-18T08:34:24;97052.41;;;25.75;74.89
15932;BME280;8065;49.520;11.284;2022-08-18T08:36:59;97044.50;;;25.81;75.04
15932;BME280;8065;49.520;11.284;2022-08-18T08:39:33;97051.47;;;25.82;74.87
15932;BME280;8065;49.520;11.284;2022-08-18T08:42:06;97046.78;;;25.83;74.84
15932;BME280;8065;49.520;11.284;2022-08-18T08:44:39;97054.03;;;25.73;75.04
15932;BME280;8065;49.520;11.284;2022-08-18T08:47:13;97051.38;;;25.86;75.13
15932;BME280;8065;49.520;11.284;2022-08-18T08:49:45;97041.06;;;25.93;75.74
15932;BME280;8065;49.520;11.284;2022-08-18T08:52:16;97042.50;;;25.98;74.91
15932;BME280;8065;49.520;11.284;2022-08-18T08:54:48;97037.38;;;26.00;73.95
15932;BME280;8065;49.520;11.284;2022-08-18T08:57:16;97037.47;;;25.96;72.78
15932;BME280;8065;49.520;11.284;2022-08-18T08:59:47;97046.19;;;26.04;73.24
15932;BME280;8065;49.520;11.284;2022-08-18T09:02:30;97044.16;;;26.08;72.85
15932;BME280;8065;49.520;11.284;2022-08-18T09:05:06;97042.09;;;26.12;73.32
15932;BME280;8065;49.520;11.284;2022-08-18T09:07:43;97033.91;;;26.12;72.71
15932;BME280;8065;49.520;11.284;2022-08-18T09:10:31;97039.69;;;26.14;72.41
15932;BME280;8065;49.520;11.284;2022-08-18T09:13:14;97034.25;;;26.14;72.58
15932;BME280;8065;49.520;11.284;2022-08-18T09:16:09;97028.69;;;26.18;73.68
15932;BME280;8065;49.520;11.284;2022-08-18T09:18:48;97018.28;;;26.29;73.66
15932;BME280;8065;49.520;11.284;2022-08-18T09:21:24;97028.34;;;26.32;72.51
15932;BME280;8065;49.520;11.284;2022-08-18T09:24:07;97018.97;;;26.33;71.87
15932;BME280;8065;49.520;11.284;2022-08-18T09:26:43;97019.72;;;26.33;71.59
15932;BME280;8065;49.520;11.284;2022-08-18T09:29:16;97008.28;;;26.38;71.97
15932;BME280;8065;49.520;11.284;2022-08-18T09:35:02;96984.88;;;26.54;72.35
15932;BME280;8065;49.520;11.284;2022-08-18T09:37:43;96983.25;;;26.69;72.53
15932;BME280;8065;49.520;11.284;2022-08-18T09:40:13;96977.13;;;26.77;71.54
15932;BME280;8065;49.520;11.284;2022-08-18T09:43:10;96978.28;;;26.89;71.73
15932;BME280;8065;49.520;11.284;2022-08-18T09:45:51;96977.53;;;27.01;71.11
15932;BME280;8065;49.520;11.284;2022-08-18T09:48:29;96971.31;;;27.14;70.27
15932;BME280;8065;49.520;11.284;2022-08-18T09:51:22;96977.00;;;27.06;69.10
15932;BME280;8065;49.520;11.284;2022-08-18T09:54:18;96981.09;;;27.24;68.85
15932;BME280;8065;49.520;11.284;2022-08-18T10:00:27;96985.72;;;27.61;68.34
15932;BME280;8065;49.520;11.284;2022-08-18T10:03:11;96981.47;;;28.04;66.32
15932;BME280;8065;49.520;11.284;2022-08-18T10:05:54;96968.31;;;28.33;64.92
15932;BME280;8065;49.520;11.284;2022-08-18T10:08:53;96969.34;;;28.58;63.39
15932;BME280;8065;49.520;11.284;2022-08-18T10:11:38;96982.38;;;28.63;63.25
15932;BME280;8065;49.520;11.284;2022-08-18T10:14:23;96982.75;;;28.34;64.68
15932;BME280;8065;49.520;11.284;2022-08-18T10:16:57;96977.72;;;27.89;64.20
15932;BME280;8065;49.520;11.284;2022-08-18T10:19:33;96995.75;;;28.08;64.87
15932;BME280;8065;49.520;11.284;2022-08-18T10:22:08;96998.31;;;28.24;63.79
15932;BME280;8065;49.520;11.284;2022-08-18T10:24:38;96998.38;;;28.33;63.91
15932;BME280;8065;49.520;11.284;2022-08-18T10:27:13;96994.13;;;28.72;63.15
15932;BME280;8065;49.520;11.284;2022-08-18T10:29:58;96994.69;;;28.89;62.78
15932;BME280;8065;49.520;11.284;2022-08-18T10:32:43;97002.78;;;29.02;62.38
15932;BME280;8065;49.520;11.284;2022-08-18T10:38:34;97009.31;;;28.73;63.12
15932;BME280;8065;49.520;11.284;2022-08-18T10:41:06;97008.66;;;28.91;62.09
15932;BME280;8065;49.520;11.284;2022-08-18T10:43:39;97003.09;;;28.73;62.14
15932;BME280;8065;49.520;11.284;2022-08-18T10:46:14;97008.28;;;28.80;62.38
15932;BME280;8065;49.520;11.284;2022-08-18T10:48:42;96998.00;;;28.84;61.90
15932;BME280;8065;49.520;11.284;2022-08-18T10:51:15;96998.63;;;28.88;62.71
15932;BME280;8065;49.520;11.284;2022-08-18T10:53:50;96995.00;;;28.91;61.48
15932;BME280;8065;49.520;11.284;2022-08-18T10:56:28;96991.50;;;28.91;60.95
15932;BME280;8065;49.520;11.284;2022-08-18T10:59:09;96971.50;;;28.81;61.33
15932;BME280;8065;49.520;11.284;2022-08-18T11:02:00;96973.94;;;28.79;61.08
15932;BME280;8065;49.520;11.284;2022-08-18T11:04:34;96970.00;;;28.80;61.28
15932;BME280;8065;49.520;11.284;2022-08-18T11:07:09;96973.19;;;28.79;61.42
15932;BME280;8065;49.520;11.284;2022-08-18T11:09:38;96984.88;;;28.79;61.54
15932;BME280;8065;49.520;11.284;2022-08-18T11:12:05;96982.47;;;28.81;62.07
15932;BME280;8065;49.520;11.284;2022-08-18T11:17:51;96965.50;;;28.95;62.02
15932;BME280;8065;49.520;11.284;2022-08-18T11:20:22;96968.28;;;29.04;62.27
15932;BME280;8065;49.520;11.284;2022-08-18T11:22:55;96956.41;;;29.08;62.10
15932;BME280;8065;49.520;11.284;2022-08-18T11:25:27;96957.19;;;29.17;61.32
15932;BME280;8065;49.520;11.284;2022-08-18T11:27:54;96955.84;;;29.22;61.23
15932;BME280;8065;49.520;11.284;2022-08-18T11:30:22;96950.69;;;29.33;61.25
15932;BME280;8065;49.520;11.284;2022-08-18T11:32:50;96935.81;;;29.43;60.89
15932;BME280;8065;49.520;11.284;2022-08-18T11:35:19;96917.81;;;29.60;60.37
15932;BME280;8065;49.520;11.284;2022-08-18T11:37:48;96909.41;;;29.82;59.99
15932;BME280;8065;49.520;11.284;2022-08-18T11:40:29;96915.31;;;29.99;59.09
15932;BME280;8065;49.520;11.284;2022-08-18T11:43:02;96914.69;;;30.22;59.40
15932;BME280;8065;49.520;11.284;2022-08-18T11:45:32;96919.66;;;30.33;58.45
15932;BME280;8065;49.520;11.284;2022-08-18T11:48:08;96924.44;;;30.14;57.61
15932;BME280;8065;49.520;11.284;2022-08-18T11:50:45;96931.28;;;30.19;57.95
15932;BME280;8065;49.520;11.284;2022-08-18T11:53:14;96931.47;;;29.97;57.06
15932;BME280;8065;49.520;11.284;2022-08-18T11:55:44;96925.38;;;29.93;57.14
15932;BME280;8065;49.520;11.284;2022-08-18T11:58:37;96926.31;;;29.90;58.17
15932;BME280;8065;49.520;11.284;2022-08-18T12:01:03;96923.09;;;29.91;58.67
15932;BME280;8065;49.520;11.284;2022-08-18T12:03:38;96931.63;;;29.93;58.91
15932;BME280;8065;49.520;11.284;2022-08-18T12:06:14;96926.44;;;29.95;58.15
15932;BME280;8065;49.520;11.284;2022-08-18T12:08:51;96920.81;;;29.90;58.18
15932;BME280;8065;49.520;11.284;2022-08-18T12:11:22;96917.47;;;29.95;58.42
15932;BME280;8065;49.520;11.284;2022-08-18T12:13:58;96915.03;;;29.97;58.49
15932;BME280;8065;49.520;11.284;2022-08-18T12:16:37;96901.31;;;29.97;58.63
15932;BME280;8065;49.520;11.284;2022-08-18T12:19:06;96895.84;;;30.06;59.42
15932;BME280;8065;49.520;11.284;2022-08-18T12:21:36;96896.44;;;30.10;58.98
15932;BME280;8065;49.520;11.284;2022-08-18T12:24:04;96901.31;;;30.06;58.80
15932;BME280;8065;49.520;11.284;2022-08-18T12:26:32;96899.63;;;30.09;59.42
15932;BME280;8065;49.520;11.284;2022-08-18T12:28:59;96902.53;;;30.05;59.22
15932;BME280;8065;49.520;11.284;2022-08-18T12:31:25;96905.56;;;29.98;59.65
15932;BME280;8065;49.520;11.284;2022-08-18T12:33:52;96899.22;;;30.01;59.92
15932;BME280;8065;49.520;11.284;2022-08-18T12:36:18;96893.56;;;30.05;59.37
15932;BME280;8065;49.520;11.284;2022-08-18T12:38:45;96887.31;;;30.04;58.79
15932;BME280;8065;49.520;11.284;2022-08-18T12:41:11;96885.63;;;30.07;57.73
15932;BME280;8065;49.520;11.284;2022-08-18T12:43:41;96873.44;;;30.08;57.77
15932;BME280;8065;49.520;11.284;2022-08-18T12:46:08;96868.78;;;29.72;60.02
15932;BME280;8065;49.520;11.284;2022-08-18T12:48:34;96863.59;;;29.83;59.20
15932;BME280;8065;49.520;11.284;2022-08-18T12:51:02;96860.53;;;29.90;57.92
15932;BME280;8065;49.520;11.284;2022-08-18T12:53:29;96863.25;;;29.99;58.61
15932;BME280;8065;49.520;11.284;2022-08-18T12:55:55;96862.34;;;30.02;57.70
15932;BME280;8065;49.520;11.284;2022-08-18T12:58:22;96866.59;;;30.12;58.10
15932;BME280;8065;49.520;11.284;2022-08-18T13:00:50;96856.03;;;30.20;57.43
15932;BME280;8065;49.520;11.284;2022-08-18T13:03:16;96851.56;;;30.31;57.84
15932;BME280;8065;49.520;11.284;2022-08-18T13:05:43;96833.81;;;30.42;57.69
15932;BME280;8065;49.520;11.284;2022-08-18T13:08:15;96827.53;;;30.50;56.94
15932;BME280;8065;49.520;11.284;2022-08-18T13:10:42;96831.00;;;30.60;56.34
15932;BME280;8065;49.520;11.284;2022-08-18T13:13:09;96829.94;;;30.57;56.52
15932;BME280;8065;49.520;11.284;2022-08-18T13:15:36;96822.78;;;30.60;56.28
15932;BME280;8065;49.520;11.284;2022-08-18T13:18:04;96809.22;;;30.80;57.08
15932;BME280;8065;49.520;11.284;2022-08-18T13:20:30;96809.38;;;31.01;56.19
15932;BME280;8065;49.520;11.284;2022-08-18T13:22:58;96809.78;;;31.23;56.01
15932;BME280;8065;49.520;11.284;2022-08-18T13:25:25;96809.06;;;31.37;54.95
15932;BME280;8065;49.520;11.284;2022-08-18T13:27:51;96804.59;;;31.54;54.29
15932;BME280;8065;49.520;11.284;2022-08-18T13:30:20;96804.22;;;31.61;54.39
15932;BME280;8065;49.520;11.284;2022-08-18T13:32:46;96808.41;;;31.72;53.55
15932;BME280;8065;49.520;11.284;2022-08-18T13:35:14;96810.31;;;31.80;52.70
15932;BME280;8065;49.520;11.284;2022-08-18T13:37:40;96804.06;;;31.80;53.00